createdAt,value
2018-05-07T00:00:50.589Z,14.71
2018-05-07T00:03:19.830Z,14.67
2018-05-07T00:05:49.106Z,14.66
2018-05-07T00:08:18.232Z,14.66
2018-05-07T00:10:47.454Z,14.62
2018-05-07T00:13:17.447Z,14.61
2018-05-07T00:15:46.681Z,14.61
2018-05-07T00:18:16.791Z,14.57
2018-05-07T00:20:46.039Z,14.54
2018-05-07T00:23:15.228Z,14.50
2018-05-07T00:25:44.426Z,14.45
2018-05-07T00:28:13.718Z,14.41
2018-05-07T00:30:43.670Z,14.36
2018-05-07T00:33:13.048Z,14.29
2018-05-07T00:35:42.237Z,14.16
2018-05-07T00:38:11.630Z,14.05
2018-05-07T00:40:40.831Z,13.87
2018-05-07T00:43:10.084Z,13.78
2018-05-07T00:45:39.534Z,13.71
2018-05-07T00:48:09.487Z,13.67
2018-05-07T00:50:38.673Z,13.57
2018-05-07T00:53:08.129Z,13.52
2018-05-07T00:55:38.113Z,13.45
2018-05-07T00:58:07.315Z,13.41
2018-05-07T01:00:37.301Z,13.36
2018-05-07T01:03:06.522Z,13.33
2018-05-07T01:05:35.729Z,13.29
2018-05-07T01:08:05.722Z,13.27
2018-05-07T01:10:34.918Z,13.26
2018-05-07T01:13:04.119Z,13.25
2018-05-07T01:15:33.345Z,13.22
2018-05-07T01:18:03.315Z,13.21
2018-05-07T01:20:32.536Z,13.18
2018-05-07T01:23:01.745Z,13.15
2018-05-07T01:25:32.666Z,13.10
2018-05-07T01:28:01.995Z,13.06
2018-05-07T01:30:32.033Z,13.03
2018-05-07T01:33:01.260Z,12.98
2018-05-07T01:35:30.499Z,12.89
2018-05-07T01:38:00.505Z,12.75
2018-05-07T01:40:29.993Z,12.69
2018-05-07T01:42:59.246Z,12.66
2018-05-07T01:45:29.209Z,12.59
2018-05-07T01:47:58.413Z,12.54
2018-05-07T01:50:27.729Z,12.49
2018-05-07T01:52:56.970Z,12.39
2018-05-07T01:55:26.277Z,12.31
2018-05-07T01:57:55.489Z,12.21
2018-05-07T02:00:24.713Z,12.13
2018-05-07T02:02:54.729Z,12.08
2018-05-07T02:05:24.108Z,12.02
2018-05-07T02:07:53.365Z,12.04
2018-05-07T02:10:22.568Z,12.07
2018-05-07T02:12:51.767Z,12.06
2018-05-07T02:15:21.056Z,12.07
2018-05-07T02:17:50.274Z,12.08
2018-05-07T02:20:19.567Z,12.10
2018-05-07T02:22:48.795Z,12.13
2018-05-07T02:25:18.018Z,12.14
2018-05-07T02:27:47.264Z,12.15
2018-05-07T02:30:16.468Z,12.21
2018-05-07T02:32:45.729Z,12.23
2018-05-07T02:35:15.714Z,12.26
2018-05-07T02:37:44.960Z,12.26
2018-05-07T02:40:14.380Z,12.32
2018-05-07T02:42:43.589Z,12.29
2018-05-07T02:45:12.812Z,12.32
2018-05-07T02:47:43.563Z,12.36
2018-05-07T02:50:13.553Z,12.39
2018-05-07T02:52:42.768Z,12.40
2018-05-07T02:55:12.224Z,12.44
2018-05-07T02:57:41.489Z,12.43
2018-05-07T03:00:10.721Z,12.44
2018-05-07T03:02:39.934Z,12.44
2018-05-07T03:05:09.162Z,12.47
2018-05-07T03:07:38.361Z,12.47
2018-05-07T03:10:08.393Z,12.49
2018-05-07T03:12:37.583Z,12.48
2018-05-07T03:15:07.625Z,12.48
2018-05-07T03:17:36.858Z,12.49
2018-05-07T03:20:06.813Z,12.49
2018-05-07T03:22:35.985Z,12.53
2018-05-07T03:25:05.234Z,12.57
2018-05-07T03:27:35.985Z,12.59
2018-05-07T03:30:05.226Z,12.54
2018-05-07T03:32:34.486Z,12.57
2018-05-07T03:35:03.738Z,12.55
2018-05-07T03:37:32.927Z,12.56
2018-05-07T03:40:02.937Z,12.61
2018-05-07T03:42:32.409Z,12.56
2018-05-07T03:45:01.686Z,12.55
2018-05-07T03:47:30.901Z,12.53
2018-05-07T03:50:00.126Z,12.49
2018-05-07T03:52:29.467Z,12.45
2018-05-07T03:54:58.677Z,12.40
2018-05-07T03:57:27.916Z,12.42
2018-05-07T03:59:57.263Z,12.41
2018-05-07T04:02:27.257Z,12.40
2018-05-07T04:04:56.458Z,12.39
2018-05-07T04:07:26.650Z,12.31
2018-05-07T04:09:55.673Z,12.32
2018-05-07T04:12:25.679Z,12.30
2018-05-07T04:14:54.881Z,12.32
2018-05-07T04:17:42.790Z,12.31
2018-05-07T04:20:29.766Z,12.28
2018-05-07T04:23:17.743Z,12.23
2018-05-07T04:25:46.955Z,12.23
2018-05-07T04:28:16.169Z,12.25
2018-05-07T04:30:46.151Z,12.22
2018-05-07T04:33:16.234Z,12.22
2018-05-07T04:35:45.470Z,12.21
2018-05-07T04:38:14.709Z,12.19
2018-05-07T04:40:44.782Z,12.17
2018-05-07T04:43:14.186Z,12.15
2018-05-07T04:45:43.313Z,12.14
2018-05-07T04:48:13.362Z,12.13
2018-05-07T04:50:42.666Z,12.14
2018-05-07T04:53:11.872Z,12.15
2018-05-07T04:55:41.096Z,12.15
2018-05-07T04:58:10.444Z,12.18
2018-05-07T05:00:39.768Z,12.22
2018-05-07T05:03:09.003Z,12.26
2018-05-07T05:05:38.225Z,12.33
2018-05-07T05:08:08.233Z,12.38
2018-05-07T05:10:37.458Z,12.46
2018-05-07T05:13:06.665Z,12.49
2018-05-07T05:15:35.886Z,12.55
2018-05-07T05:18:05.112Z,12.60
2018-05-07T05:20:35.811Z,12.66
2018-05-07T05:23:05.044Z,12.65
2018-05-07T05:25:34.307Z,12.73
2018-05-07T05:28:03.557Z,12.75
2018-05-07T05:30:32.769Z,12.76
2018-05-07T05:33:02.799Z,12.85
2018-05-07T05:35:32.757Z,12.90
2018-05-07T05:38:02.792Z,12.97
2018-05-07T05:40:32.042Z,13.01
2018-05-07T05:43:01.333Z,13.12
2018-05-07T05:45:30.550Z,13.22
2018-05-07T05:47:59.784Z,13.33
2018-05-07T05:50:28.995Z,13.42
2018-05-07T05:52:58.230Z,13.55
2018-05-07T05:55:27.509Z,13.66
2018-05-07T05:57:56.755Z,13.75
2018-05-07T06:00:25.995Z,13.88
2018-05-07T06:02:56.032Z,13.97
2018-05-07T06:05:26.103Z,14.07
2018-05-07T06:07:55.705Z,14.11
2018-05-07T06:10:24.939Z,14.18
2018-05-07T06:12:54.198Z,14.27
2018-05-07T06:15:23.435Z,14.34
2018-05-07T06:17:52.654Z,14.43
2018-05-07T06:20:21.904Z,14.53
2018-05-07T06:22:51.107Z,14.64
2018-05-07T06:25:20.319Z,14.78
2018-05-07T06:27:50.313Z,14.90
2018-05-07T06:30:19.562Z,15.02
2018-05-07T06:32:48.776Z,15.11
2018-05-07T06:35:18.030Z,15.21
2018-05-07T06:37:48.019Z,15.34
2018-05-07T06:40:17.301Z,15.38
2018-05-07T06:42:47.238Z,15.48
2018-05-07T06:45:17.989Z,15.57
2018-05-07T06:47:47.992Z,15.58
2018-05-07T06:50:17.251Z,15.67
2018-05-07T06:52:46.486Z,15.80
2018-05-07T06:55:15.741Z,15.98
2018-05-07T06:57:44.976Z,16.16
2018-05-07T07:00:14.196Z,16.31
2018-05-07T07:02:44.295Z,16.44
2018-05-07T07:05:13.453Z,16.54
2018-05-07T07:07:42.717Z,16.59
2018-05-07T07:10:12.683Z,16.70
2018-05-07T07:12:41.945Z,16.82
2018-05-07T07:15:11.191Z,16.90
2018-05-07T07:17:40.432Z,16.94
2018-05-07T07:20:09.861Z,17.12
2018-05-07T07:22:39.080Z,17.28
2018-05-07T07:25:08.322Z,17.44
2018-05-07T07:27:38.313Z,17.58
2018-05-07T07:30:07.537Z,17.64
2018-05-07T07:32:36.801Z,17.75
2018-05-07T07:35:06.025Z,17.86
2018-05-07T07:37:36.032Z,17.90
2018-05-07T07:40:05.236Z,17.98
2018-05-07T07:42:34.471Z,18.05
2018-05-07T07:45:03.737Z,18.12
2018-05-07T07:47:33.525Z,18.23
2018-05-07T07:50:02.749Z,18.31
2018-05-07T07:52:32.791Z,18.34
2018-05-07T07:55:03.493Z,18.39
2018-05-07T07:57:33.487Z,18.43
2018-05-07T08:00:02.821Z,18.45
2018-05-07T08:02:32.058Z,18.57
2018-05-07T08:05:01.277Z,18.75
2018-05-07T08:07:30.555Z,18.96
2018-05-07T08:09:59.857Z,19.11
2018-05-07T08:12:29.062Z,19.20
2018-05-07T08:14:58.333Z,19.30
2018-05-07T08:17:27.692Z,19.39
2018-05-07T08:19:56.929Z,19.49
2018-05-07T08:22:26.159Z,19.48
2018-05-07T08:24:55.385Z,19.48
2018-05-07T08:27:24.608Z,19.55
2018-05-07T08:29:54.585Z,19.60
2018-05-07T08:32:23.838Z,19.64
2018-05-07T08:34:53.042Z,19.70
2018-05-07T08:37:22.270Z,19.74
2018-05-07T08:39:51.475Z,19.80
2018-05-07T08:42:20.722Z,19.71
2018-05-07T08:44:49.958Z,19.72
2018-05-07T08:47:19.185Z,19.66
2018-05-07T08:49:48.394Z,19.67
2018-05-07T08:52:18.423Z,19.68
2018-05-07T08:54:48.565Z,19.68
2018-05-07T08:57:17.814Z,19.78
2018-05-07T08:59:48.554Z,19.93
2018-05-07T09:02:18.620Z,20.04
2018-05-07T09:04:48.802Z,20.03
2018-05-07T09:07:18.801Z,20.13
2018-05-07T09:09:48.797Z,20.29
2018-05-07T09:12:18.081Z,20.46
2018-05-07T09:14:47.397Z,20.58
2018-05-07T09:17:16.597Z,20.66
2018-05-07T09:19:47.569Z,20.73
2018-05-07T09:22:17.588Z,20.70
2018-05-07T09:24:47.017Z,20.74
2018-05-07T09:27:16.304Z,20.86
2018-05-07T09:29:45.626Z,21.00
2018-05-07T09:32:14.852Z,21.14
2018-05-07T09:34:44.096Z,21.38
2018-05-07T09:37:13.297Z,21.58
2018-05-07T09:39:42.521Z,21.63
2018-05-07T09:42:11.777Z,21.72
2018-05-07T09:44:41.764Z,21.99
2018-05-07T09:47:10.962Z,22.32
2018-05-07T09:49:40.650Z,22.39
2018-05-07T09:52:09.889Z,22.42
2018-05-07T09:54:39.869Z,22.52
2018-05-07T09:57:09.076Z,22.81
2018-05-07T09:59:38.298Z,23.09
2018-05-07T10:02:08.296Z,23.23
2018-05-07T10:04:37.513Z,23.25
2018-05-07T10:07:07.497Z,23.23
2018-05-07T10:09:36.913Z,23.07
2018-05-07T10:12:06.112Z,22.94
2018-05-07T10:14:35.330Z,22.98
2018-05-07T10:17:05.352Z,23.11
2018-05-07T10:19:34.959Z,23.19
2018-05-07T10:22:04.928Z,23.23
2018-05-07T10:24:34.152Z,23.12
2018-05-07T10:27:03.405Z,22.89
2018-05-07T10:29:32.765Z,22.84
2018-05-07T10:32:02.051Z,22.91
2018-05-07T10:34:31.256Z,22.95
2018-05-07T10:37:00.475Z,22.87
2018-05-07T10:39:30.576Z,22.75
2018-05-07T10:42:00.605Z,22.77
2018-05-07T10:44:30.600Z,22.91
2018-05-07T10:46:59.969Z,23.01
2018-05-07T10:49:29.181Z,23.09
2018-05-07T10:51:59.970Z,22.96
2018-05-07T10:54:29.177Z,22.78
2018-05-07T10:56:58.420Z,22.63
2018-05-07T10:59:27.628Z,22.49
2018-05-07T11:01:56.838Z,22.43
2018-05-07T11:04:26.816Z,22.38
2018-05-07T11:06:56.088Z,22.38
2018-05-07T11:09:25.392Z,22.36
2018-05-07T11:11:55.343Z,22.36
2018-05-07T11:14:24.553Z,22.48
2018-05-07T11:16:54.613Z,22.62
2018-05-07T11:19:23.973Z,22.67
2018-05-07T11:21:54.052Z,22.67
2018-05-07T11:24:23.237Z,22.68
2018-05-07T11:26:52.530Z,22.72
2018-05-07T11:29:21.770Z,22.77
2018-05-07T11:31:51.009Z,22.82
2018-05-07T11:34:20.236Z,22.83
2018-05-07T11:36:49.509Z,22.88
2018-05-07T11:39:18.753Z,22.94
2018-05-07T11:41:48.718Z,23.01
2018-05-07T11:44:17.976Z,23.04
2018-05-07T11:46:47.164Z,22.99
2018-05-07T11:49:16.375Z,22.95
2018-05-07T11:51:45.577Z,23.04
2018-05-07T11:54:14.865Z,23.07
2018-05-07T11:56:44.070Z,23.10
2018-05-07T11:59:13.277Z,23.15
2018-05-07T12:01:43.233Z,23.14
2018-05-07T12:04:12.513Z,23.09
2018-05-07T12:06:42.082Z,23.15
2018-05-07T12:09:11.300Z,23.21
2018-05-07T12:11:40.522Z,23.22
2018-05-07T12:14:10.674Z,23.25
2018-05-07T12:16:40.028Z,23.31
2018-05-07T12:19:10.059Z,23.34
2018-05-07T12:21:39.294Z,23.46
2018-05-07T12:24:08.506Z,23.55
2018-05-07T12:26:37.762Z,23.55
2018-05-07T12:29:06.970Z,23.48
2018-05-07T12:31:36.386Z,23.47
2018-05-07T12:34:05.492Z,23.65
2018-05-07T12:36:35.544Z,23.75
2018-05-07T12:39:05.589Z,23.73
2018-05-07T12:41:34.873Z,23.76
2018-05-07T12:44:04.091Z,23.74
2018-05-07T12:46:34.065Z,23.79
2018-05-07T12:49:03.261Z,23.90
2018-05-07T12:51:33.350Z,23.93
2018-05-07T12:54:02.570Z,24.01
2018-05-07T12:56:31.804Z,24.00
2018-05-07T12:59:01.142Z,24.03
2018-05-07T13:01:30.291Z,24.05
2018-05-07T13:03:59.526Z,24.06
2018-05-07T13:06:29.568Z,24.03
2018-05-07T13:08:58.773Z,24.04
2018-05-07T13:11:28.083Z,23.97
2018-05-07T13:13:57.497Z,24.00
2018-05-07T13:16:27.508Z,24.10
2018-05-07T13:18:57.889Z,24.15
2018-05-07T13:21:27.186Z,24.23
2018-05-07T13:23:56.434Z,24.22
2018-05-07T13:26:26.434Z,24.17
2018-05-07T13:28:56.434Z,24.17
2018-05-07T13:31:25.663Z,24.16
2018-05-07T13:33:55.675Z,24.23
2018-05-07T13:36:24.864Z,24.26
2018-05-07T13:38:54.877Z,24.32
2018-05-07T13:41:24.860Z,24.40
2018-05-07T13:43:54.093Z,24.47
2018-05-07T13:46:24.814Z,24.45
2018-05-07T13:48:54.045Z,24.53
2018-05-07T13:51:23.261Z,24.52
2018-05-07T13:53:52.681Z,24.51
2018-05-07T13:56:21.934Z,24.47
2018-05-07T13:58:51.918Z,24.44
2018-05-07T14:01:21.154Z,24.46
2018-05-07T14:03:51.146Z,24.47
2018-05-07T14:06:20.473Z,24.49
2018-05-07T14:08:50.561Z,24.53
2018-05-07T14:11:21.356Z,24.62
2018-05-07T14:13:50.546Z,24.68
2018-05-07T14:16:19.765Z,24.72
2018-05-07T14:18:49.050Z,24.60
2018-05-07T14:21:18.295Z,24.60
2018-05-07T14:23:47.817Z,24.55
2018-05-07T14:26:17.898Z,24.54
2018-05-07T14:28:47.067Z,24.50
2018-05-07T14:31:16.289Z,24.53
2018-05-07T14:33:45.512Z,24.54
2018-05-07T14:36:14.734Z,24.57
2018-05-07T14:38:44.007Z,24.64
2018-05-07T14:41:13.242Z,24.67
2018-05-07T14:43:42.655Z,24.65
2018-05-07T14:46:11.883Z,24.68
2018-05-07T14:48:41.098Z,24.70
2018-05-07T14:51:10.306Z,24.71
2018-05-07T14:53:39.554Z,24.74
2018-05-07T14:56:08.817Z,24.72
2018-05-07T14:58:38.874Z,24.71
2018-05-07T15:01:08.059Z,24.68
2018-05-07T15:03:37.265Z,24.64
2018-05-07T15:06:06.465Z,24.62
2018-05-07T15:08:35.739Z,24.65
2018-05-07T15:11:04.967Z,24.63
2018-05-07T15:13:34.273Z,24.60
2018-05-07T15:16:03.453Z,24.56
2018-05-07T15:18:32.688Z,24.55
2018-05-07T15:21:01.905Z,24.57
2018-05-07T15:23:31.927Z,24.59
2018-05-07T15:26:01.170Z,24.65
2018-05-07T15:28:30.389Z,24.68
2018-05-07T15:30:59.669Z,24.73
2018-05-07T15:33:28.901Z,24.76
2018-05-07T15:35:58.196Z,24.75
2018-05-07T15:38:27.433Z,24.73
2018-05-07T15:40:56.729Z,24.70
2018-05-07T15:43:25.965Z,24.66
2018-05-07T15:45:55.271Z,24.61
2018-05-07T15:48:24.553Z,24.66
2018-05-07T15:50:53.800Z,24.66
2018-05-07T15:53:23.070Z,24.63
2018-05-07T15:55:52.307Z,24.60
2018-05-07T15:58:21.603Z,24.59
2018-05-07T16:00:51.626Z,24.61
2018-05-07T16:03:21.054Z,24.58
2018-05-07T16:05:51.002Z,24.63
2018-05-07T16:08:20.241Z,24.64
2018-05-07T16:10:50.223Z,24.63
2018-05-07T16:13:19.461Z,24.64
2018-05-07T16:15:49.478Z,24.63
2018-05-07T16:18:18.709Z,24.65
2018-05-07T16:20:47.929Z,24.63
2018-05-07T16:23:17.311Z,24.59
2018-05-07T16:25:46.385Z,24.56
2018-05-07T16:28:15.646Z,24.53
2018-05-07T16:30:44.819Z,24.51
2018-05-07T16:33:14.061Z,24.51
2018-05-07T16:35:44.128Z,24.55
2018-05-07T16:38:13.285Z,24.56
2018-05-07T16:40:42.545Z,24.52
2018-05-07T16:43:11.766Z,24.50
2018-05-07T16:45:41.778Z,24.46
2018-05-07T16:48:11.742Z,24.45
2018-05-07T16:50:41.273Z,24.45
2018-05-07T16:53:10.559Z,24.42
2018-05-07T16:55:39.790Z,24.38
2018-05-07T16:58:09.024Z,24.36
2018-05-07T17:00:38.221Z,24.33
2018-05-07T17:03:07.493Z,24.35
2018-05-07T17:05:37.500Z,24.36
2018-05-07T17:08:06.729Z,24.36
2018-05-07T17:10:35.954Z,24.38
2018-05-07T17:13:05.231Z,24.36
2018-05-07T17:15:35.171Z,24.31
2018-05-07T17:18:04.410Z,24.19
2018-05-07T17:20:34.393Z,24.14
2018-05-07T17:23:03.642Z,24.09
2018-05-07T17:25:33.214Z,24.05
2018-05-07T17:28:02.461Z,24.00
2018-05-07T17:30:31.653Z,23.97
2018-05-07T17:33:00.893Z,23.90
2018-05-07T17:35:30.112Z,23.80
2018-05-07T17:37:59.361Z,23.72
2018-05-07T17:40:28.611Z,23.66
2018-05-07T17:42:57.813Z,23.57
2018-05-07T17:45:45.250Z,23.56
2018-05-07T18:01:51.512Z,23.33
2018-05-07T18:04:21.483Z,23.27
2018-05-07T18:06:50.679Z,23.22
2018-05-07T18:09:21.529Z,23.19
2018-05-07T18:11:51.521Z,23.21
2018-05-07T18:14:21.381Z,23.17
2018-05-07T18:16:50.686Z,23.05
2018-05-07T18:19:20.763Z,22.99
2018-05-07T18:21:50.002Z,22.94
2018-05-07T18:24:19.990Z,22.88
2018-05-07T18:26:49.324Z,22.82
2018-05-07T18:29:19.327Z,22.73
2018-05-07T18:31:49.410Z,22.63
2018-05-07T18:34:18.633Z,22.55
2018-05-07T18:36:48.727Z,22.45
2018-05-07T18:39:17.983Z,22.36
2018-05-07T18:41:47.262Z,22.30
2018-05-07T18:44:17.304Z,22.27
2018-05-07T18:46:46.573Z,22.21
2018-05-07T18:49:15.806Z,22.13
2018-05-07T18:51:45.029Z,22.08
2018-05-07T18:54:14.269Z,22.00
2018-05-07T18:56:44.238Z,21.91
2018-05-07T18:59:13.489Z,21.84
2018-05-07T19:01:42.716Z,21.79
2018-05-07T19:04:12.169Z,21.73
2018-05-07T19:06:41.427Z,21.60
2018-05-07T19:09:10.706Z,21.58
2018-05-07T19:11:39.952Z,21.54
2018-05-07T19:14:09.971Z,21.48
2018-05-07T19:16:39.202Z,21.44
2018-05-07T19:19:08.493Z,21.37
2018-05-07T19:21:37.759Z,21.30
2018-05-07T19:24:06.996Z,21.27
2018-05-07T19:26:36.199Z,21.19
2018-05-07T19:29:05.452Z,21.07
2018-05-07T19:31:34.780Z,20.98
2018-05-07T19:34:04.788Z,20.88
2018-05-07T19:36:34.797Z,20.80
2018-05-07T19:39:04.054Z,20.73
2018-05-07T19:41:33.417Z,20.65
2018-05-07T19:44:02.641Z,20.58
2018-05-07T19:46:31.885Z,20.57
2018-05-07T19:49:01.144Z,20.51
2018-05-07T19:51:30.389Z,20.47
2018-05-07T19:54:00.383Z,20.46
2018-05-07T19:56:29.649Z,20.46
2018-05-07T19:58:58.865Z,20.48
2018-05-07T20:01:28.250Z,20.48
2018-05-07T20:03:57.697Z,20.49
2018-05-07T20:06:28.434Z,20.43
2018-05-07T20:08:58.492Z,20.45
2018-05-07T20:11:29.405Z,20.44
2018-05-07T20:26:58.799Z,19.78
2018-05-07T20:29:28.082Z,19.79
2018-05-07T20:31:57.321Z,19.80
2018-05-07T20:34:26.570Z,19.80
2018-05-07T20:36:56.600Z,19.82
2018-05-07T20:39:28.006Z,19.84
2018-05-07T20:41:58.091Z,19.86
2018-05-07T20:44:27.780Z,19.87
2018-05-07T20:46:57.043Z,19.83
2018-05-07T20:49:26.300Z,19.83
2018-05-07T20:51:55.631Z,19.83
2018-05-07T20:54:24.873Z,19.82
2018-05-07T20:56:54.977Z,19.81
2018-05-07T20:59:24.208Z,19.78
2018-05-07T21:01:54.910Z,19.73
2018-05-07T21:04:24.206Z,19.74
2018-05-07T21:06:53.670Z,19.72
2018-05-07T21:09:22.895Z,19.62
2018-05-07T21:11:52.124Z,19.55
2018-05-07T21:14:22.143Z,19.51
2018-05-07T21:16:52.204Z,19.43
2018-05-07T21:19:22.879Z,19.29
2018-05-07T21:21:52.149Z,19.19
2018-05-07T21:24:21.499Z,19.12
2018-05-07T21:26:50.733Z,19.07
2018-05-07T21:29:20.283Z,19.04
2018-05-07T21:31:49.695Z,19.01
2018-05-07T21:34:19.698Z,18.95
2018-05-07T21:36:49.761Z,18.84
2018-05-07T21:39:19.913Z,18.72
2018-05-07T21:41:49.154Z,18.61
2018-05-07T21:44:18.405Z,18.55
2018-05-07T21:46:47.628Z,18.45
2018-05-07T21:49:16.871Z,18.41
2018-05-07T21:51:46.178Z,18.35
2018-05-07T21:54:15.421Z,18.29
2018-05-07T21:56:45.500Z,18.22
2018-05-07T21:59:14.742Z,18.16
2018-05-07T22:01:44.744Z,18.14
2018-05-07T22:04:13.995Z,18.11
2018-05-07T22:06:43.209Z,18.06
2018-05-07T22:09:12.414Z,17.94
2018-05-07T22:11:41.680Z,17.84
2018-05-07T22:14:11.620Z,17.71
2018-05-07T22:16:40.995Z,17.64
2018-05-07T22:19:10.134Z,17.60
2018-05-07T22:21:39.377Z,17.58
2018-05-07T22:24:08.595Z,17.54
2018-05-07T22:26:37.849Z,17.52
2018-05-07T22:29:07.053Z,17.47
2018-05-07T22:31:36.273Z,17.44
2018-05-07T22:34:05.506Z,17.34
2018-05-07T22:36:34.754Z,17.20
2018-05-07T22:39:28.025Z,17.16
2018-05-07T22:41:57.251Z,17.06
2018-05-07T22:44:26.448Z,17.04
2018-05-07T22:46:55.694Z,16.98
2018-05-07T22:49:25.123Z,16.95
2018-05-07T22:51:54.366Z,16.93
2018-05-07T22:54:23.710Z,16.82
2018-05-07T22:56:53.674Z,16.67
2018-05-07T22:59:23.004Z,16.52
2018-05-07T23:01:52.247Z,16.44
2018-05-07T23:04:21.464Z,16.43
2018-05-07T23:06:50.677Z,16.42
2018-05-07T23:09:19.886Z,16.36
2018-05-07T23:11:49.113Z,16.26
2018-05-07T23:14:19.121Z,16.12
2018-05-07T23:16:48.367Z,16.04
2018-05-07T23:19:17.587Z,15.96
2018-05-07T23:21:46.814Z,15.91
2018-05-07T23:24:16.037Z,15.90
2018-05-07T23:26:45.233Z,15.91
2018-05-07T23:29:14.464Z,15.92
2018-05-07T23:31:43.704Z,15.93
2018-05-07T23:34:13.706Z,15.93
2018-05-07T23:36:42.956Z,15.91
2018-05-07T23:39:12.160Z,15.92
2018-05-07T23:41:41.378Z,15.88
2018-05-07T23:44:10.611Z,15.85
2018-05-07T23:46:40.665Z,15.80
2018-05-07T23:49:10.023Z,15.78
2018-05-07T23:51:40.090Z,15.74
2018-05-07T23:54:09.321Z,15.64
2018-05-07T23:56:38.518Z,15.52
2018-05-07T23:59:07.784Z,15.40
